createdAt,value
2023-04-08T00:01:14.325Z,11.27
2023-04-08T00:03:42.219Z,11.83
2023-04-08T00:06:10.144Z,12.77
2023-04-08T00:08:39.264Z,11.23
2023-04-08T00:11:07.292Z,10.33
2023-04-08T00:13:35.039Z,10.93
2023-04-08T00:16:03.177Z,11.10
2023-04-08T00:18:30.891Z,11.13
2023-04-08T00:20:58.643Z,11.70
2023-04-08T00:23:26.362Z,10.67
2023-04-08T00:25:55.430Z,11.30
2023-04-08T00:28:23.164Z,11.30
2023-04-08T00:30:51.355Z,10.57
2023-04-08T00:33:19.109Z,11.50
2023-04-08T00:35:47.277Z,11.27
2023-04-08T00:38:15.016Z,11.63
2023-04-08T00:40:42.871Z,12.57
2023-04-08T00:43:12.112Z,10.87
2023-04-08T00:45:39.859Z,12.77
2023-04-08T00:48:07.702Z,11.87
2023-04-08T00:50:35.430Z,11.23
2023-04-08T00:53:03.151Z,12.10
2023-04-08T00:55:30.874Z,11.57
2023-04-08T00:57:59.430Z,10.87
2023-04-08T01:00:31.495Z,13.33
2023-04-08T01:03:08.878Z,11.27
2023-04-08T01:05:44.954Z,11.27
2023-04-08T01:08:13.211Z,10.80
2023-04-08T01:10:44.389Z,11.00
2023-04-08T01:13:15.593Z,11.80
2023-04-08T01:15:46.269Z,12.57
2023-04-08T01:18:16.745Z,12.23
2023-04-08T01:20:45.411Z,11.87
2023-04-08T01:23:21.982Z,10.97
2023-04-08T01:25:52.955Z,12.67
2023-04-08T01:28:22.128Z,11.93
2023-04-08T01:30:51.058Z,11.27
2023-04-08T01:33:20.617Z,11.27
2023-04-08T01:35:48.754Z,11.27
2023-04-08T01:38:19.189Z,11.53
2023-04-08T01:40:48.920Z,11.60
2023-04-08T01:43:20.508Z,10.53
2023-04-08T01:45:49.861Z,11.80
2023-04-08T01:48:17.768Z,10.70
2023-04-08T01:50:46.566Z,12.27
2023-04-08T01:53:14.434Z,11.87
2023-04-08T01:55:44.037Z,12.00
2023-04-08T01:58:18.173Z,12.50
2023-04-08T02:00:48.317Z,12.40
2023-04-08T02:03:20.025Z,12.20
2023-04-08T02:05:48.090Z,12.53
2023-04-08T02:08:15.781Z,13.27
2023-04-08T02:10:43.524Z,12.57
2023-04-08T02:13:11.271Z,12.00
2023-04-08T02:15:44.120Z,12.83
2023-04-08T02:18:17.122Z,12.03
2023-04-08T02:20:48.914Z,12.40
2023-04-08T02:23:23.519Z,12.90
2023-04-08T02:25:51.607Z,13.13
2023-04-08T02:28:19.968Z,12.53
2023-04-08T02:30:51.135Z,12.77
2023-04-08T02:33:22.527Z,14.10
2023-04-08T02:35:52.135Z,12.27
2023-04-08T02:38:20.233Z,12.70
2023-04-08T02:40:50.807Z,13.70
2023-04-08T02:43:18.554Z,12.33
2023-04-08T02:45:46.820Z,12.13
2023-04-08T02:48:14.595Z,11.67
2023-04-08T02:50:43.672Z,12.60
2023-04-08T02:53:11.431Z,12.87
2023-04-08T02:55:40.101Z,12.33
2023-04-08T02:58:07.855Z,12.80
2023-04-08T03:00:35.879Z,12.87
2023-04-08T03:03:03.816Z,14.10
2023-04-08T03:05:31.633Z,13.10
2023-04-08T03:08:00.709Z,12.97
2023-04-08T03:10:28.518Z,11.53
2023-04-08T03:12:56.292Z,12.43
2023-04-08T03:15:24.057Z,13.13
2023-04-08T03:17:51.843Z,12.20
2023-04-08T03:20:19.622Z,12.13
2023-04-08T03:22:47.372Z,11.70
2023-04-08T03:25:16.517Z,12.80
2023-04-08T03:27:44.237Z,12.53
2023-04-08T03:30:12.305Z,12.27
2023-04-08T03:32:40.070Z,12.10
2023-04-08T03:35:08.450Z,11.77
2023-04-08T03:37:36.202Z,13.27
2023-04-08T03:40:04.990Z,12.70
2023-04-08T03:42:35.084Z,12.47
2023-04-08T03:45:02.812Z,11.03
2023-04-08T03:47:30.588Z,13.77
2023-04-08T03:49:58.354Z,12.87
2023-04-08T03:52:26.104Z,12.73
2023-04-08T03:54:53.806Z,12.67
2023-04-08T03:57:21.565Z,12.67
2023-04-08T03:59:50.656Z,12.73
2023-04-08T04:02:18.486Z,12.57
2023-04-08T04:04:46.341Z,13.10
2023-04-08T04:07:14.096Z,12.77
2023-04-08T04:09:41.776Z,11.63
2023-04-08T04:12:09.529Z,12.83
2023-04-08T04:14:37.252Z,13.87
2023-04-08T04:17:06.393Z,14.67
2023-04-08T04:19:34.126Z,14.33
2023-04-08T04:22:01.881Z,14.40
2023-04-08T04:24:29.588Z,15.30
2023-04-08T04:26:57.354Z,14.47
2023-04-08T04:29:25.179Z,14.57
2023-04-08T04:31:52.984Z,13.53
2023-04-08T04:34:22.099Z,13.93
2023-04-08T04:36:49.835Z,12.93
2023-04-08T04:39:17.550Z,12.63
2023-04-08T04:41:46.068Z,11.60
2023-04-08T04:44:13.813Z,12.87
2023-04-08T04:46:41.573Z,12.43
2023-04-08T04:49:09.688Z,11.90
2023-04-08T04:51:38.780Z,13.33
2023-04-08T04:54:06.515Z,11.87
2023-04-08T04:56:34.272Z,12.50
2023-04-08T04:59:02.026Z,12.30
2023-04-08T05:01:30.063Z,12.20
2023-04-08T05:03:57.808Z,12.10
2023-04-08T05:06:26.414Z,12.10
2023-04-08T05:08:55.635Z,13.30
2023-04-08T05:11:23.332Z,12.50
2023-04-08T05:13:51.052Z,12.37
2023-04-08T05:16:18.802Z,13.63
2023-04-08T05:18:46.515Z,13.50
2023-04-08T05:21:14.213Z,13.47
2023-04-08T05:23:41.892Z,13.03
2023-04-08T05:26:11.311Z,13.13
2023-04-08T05:28:39.013Z,13.27
2023-04-08T05:31:06.814Z,14.27
2023-04-08T05:33:34.606Z,14.40
2023-04-08T05:36:02.788Z,14.17
2023-04-08T05:38:30.590Z,15.70
2023-04-08T05:40:58.284Z,13.97
2023-04-08T05:43:27.421Z,15.23
2023-04-08T05:45:55.257Z,13.80
2023-04-08T05:48:23.134Z,13.90
2023-04-08T05:50:51.018Z,14.70
2023-04-08T05:53:18.766Z,14.33
2023-04-08T05:55:46.521Z,13.77
2023-04-08T05:58:14.232Z,15.43
2023-04-08T06:00:43.299Z,14.17
2023-04-08T06:03:11.536Z,14.53
2023-04-08T06:05:39.485Z,16.33
2023-04-08T06:08:07.484Z,17.00
2023-04-08T06:10:35.161Z,15.37
2023-04-08T06:13:02.858Z,15.50
2023-04-08T06:15:30.602Z,15.80
2023-04-08T06:17:59.786Z,14.80
2023-04-08T06:20:28.306Z,15.13
2023-04-08T06:22:56.053Z,14.97
2023-04-08T06:25:23.840Z,13.37
2023-04-08T06:27:51.601Z,14.13
2023-04-08T06:30:19.471Z,12.70
2023-04-08T06:32:48.252Z,13.20
2023-04-08T06:35:17.563Z,13.00
2023-04-08T06:37:45.363Z,13.00
2023-04-08T06:40:13.304Z,13.67
2023-04-08T06:42:43.108Z,13.10
2023-04-08T06:45:12.013Z,13.27
2023-04-08T06:47:39.770Z,11.63
2023-04-08T06:50:08.477Z,12.27
2023-04-08T06:52:37.539Z,14.07
2023-04-08T06:55:06.015Z,12.77
2023-04-08T06:57:33.778Z,11.83
2023-04-08T07:00:01.506Z,12.93
2023-04-08T07:02:29.290Z,11.70
2023-04-08T07:04:57.054Z,12.27
2023-04-08T07:07:24.776Z,13.17
2023-04-08T07:09:53.884Z,11.50
2023-04-08T07:12:21.979Z,12.97
2023-04-08T07:14:49.669Z,12.40
2023-04-08T07:17:17.368Z,13.73
2023-04-08T07:19:45.340Z,12.47
2023-04-08T07:22:13.043Z,13.00
2023-04-08T07:24:42.854Z,13.90
2023-04-08T07:27:11.991Z,12.93
2023-04-08T07:29:39.719Z,12.63
2023-04-08T07:32:08.592Z,12.40
2023-04-08T07:34:36.740Z,12.57
2023-04-08T07:37:04.490Z,13.90
2023-04-08T07:39:32.248Z,14.47
2023-04-08T07:41:59.953Z,12.67
2023-04-08T07:44:29.087Z,14.07
2023-04-08T07:46:56.842Z,14.53
2023-04-08T07:49:24.637Z,12.07
2023-04-08T07:51:53.133Z,12.77
2023-04-08T07:54:20.860Z,12.60
2023-04-08T07:56:48.588Z,11.63
2023-04-08T07:59:16.518Z,12.50
2023-04-08T08:01:46.920Z,11.97
2023-04-08T08:04:14.927Z,13.07
2023-04-08T08:06:42.755Z,13.47
2023-04-08T08:09:11.030Z,12.97
2023-04-08T08:11:38.760Z,13.13
2023-04-08T08:14:07.927Z,12.87
2023-04-08T08:16:36.484Z,13.23
2023-04-08T08:19:07.261Z,13.43
2023-04-08T08:21:37.990Z,12.73
2023-04-08T08:24:05.864Z,12.50
2023-04-08T08:26:36.731Z,12.00
2023-04-08T08:29:05.060Z,11.13
2023-04-08T08:31:32.810Z,11.83
2023-04-08T08:34:00.625Z,10.97
2023-04-08T08:36:29.832Z,10.83
2023-04-08T08:38:57.577Z,10.63
2023-04-08T08:41:25.903Z,10.67
2023-04-08T08:43:54.698Z,10.83
2023-04-08T08:46:22.536Z,9.90
2023-04-08T08:48:50.374Z,11.73
2023-04-08T08:51:18.078Z,9.43
2023-04-08T08:53:47.229Z,10.43
2023-04-08T08:56:17.858Z,9.80
2023-04-08T08:58:47.568Z,11.60
2023-04-08T09:01:32.350Z,9.97
2023-04-08T09:04:11.990Z,10.17
2023-04-08T09:06:40.436Z,10.53
2023-04-08T09:09:11.271Z,9.50
2023-04-08T09:11:40.916Z,9.30
2023-04-08T09:14:22.185Z,9.37
2023-04-08T09:16:50.764Z,9.63
2023-04-08T09:19:18.651Z,9.13
2023-04-08T09:21:47.673Z,10.17
2023-04-08T09:24:30.750Z,10.00
2023-04-08T09:26:58.512Z,9.40
2023-04-08T09:29:29.853Z,9.73
2023-04-08T09:32:00.097Z,9.47
2023-04-08T09:34:29.274Z,10.13
2023-04-08T09:36:57.153Z,9.33
2023-04-08T09:39:24.984Z,10.07
2023-04-08T09:42:01.004Z,10.07
2023-04-08T09:44:29.926Z,10.87
2023-04-08T09:47:06.938Z,9.80
2023-04-08T09:49:39.044Z,9.30
2023-04-08T09:52:09.363Z,9.47
2023-04-08T09:54:44.427Z,10.10
2023-04-08T09:57:17.360Z,9.27
2023-04-08T09:59:53.733Z,10.27
2023-04-08T10:02:29.367Z,9.50
2023-04-08T10:05:04.993Z,9.83
2023-04-08T10:07:35.815Z,9.80
2023-04-08T10:10:03.968Z,10.47
2023-04-08T10:12:33.363Z,9.47
2023-04-08T10:15:23.300Z,11.07
2023-04-08T10:17:51.080Z,10.07
2023-04-08T10:20:51.623Z,10.27
2023-04-08T10:23:21.257Z,10.60
2023-04-08T10:25:50.014Z,9.60
2023-04-08T10:28:36.707Z,10.03
2023-04-08T10:31:04.676Z,10.27
2023-04-08T10:33:34.638Z,9.90
2023-04-08T10:36:11.571Z,10.10
2023-04-08T10:38:39.908Z,10.03
2023-04-08T10:41:07.987Z,9.73
2023-04-08T10:43:37.802Z,10.00
2023-04-08T10:46:06.458Z,10.57
2023-04-08T10:48:34.349Z,11.10
2023-04-08T10:51:03.848Z,10.67
2023-04-08T10:53:33.427Z,9.83
2023-04-08T10:56:08.098Z,11.33
2023-04-08T10:58:37.497Z,10.70
2023-04-08T11:01:07.058Z,10.50
2023-04-08T11:03:36.079Z,10.73
2023-04-08T11:06:04.333Z,10.53
2023-04-08T11:08:32.450Z,10.53
2023-04-08T11:11:01.647Z,10.43
2023-04-08T11:13:29.853Z,10.97
2023-04-08T11:16:00.325Z,11.23
2023-04-08T11:18:28.646Z,10.33
2023-04-08T11:20:58.362Z,11.17
2023-04-08T11:23:28.004Z,10.70
2023-04-08T11:25:56.680Z,11.17
2023-04-08T11:28:24.652Z,10.10
2023-04-08T11:30:53.344Z,10.80
2023-04-08T11:33:22.638Z,10.83
2023-04-08T11:35:52.470Z,10.33
2023-04-08T11:38:23.935Z,11.30
2023-04-08T11:40:55.287Z,11.10
2023-04-08T11:43:23.437Z,10.37
2023-04-08T11:45:51.534Z,10.27
2023-04-08T11:48:19.439Z,10.10
2023-04-08T11:50:50.717Z,10.53
2023-04-08T11:53:19.681Z,10.47
2023-04-08T11:55:48.502Z,10.33
2023-04-08T11:58:16.471Z,10.03
2023-04-08T12:00:45.658Z,10.70
2023-04-08T12:03:14.140Z,10.30
2023-04-08T12:05:42.526Z,10.67
2023-04-08T12:08:11.732Z,10.87
2023-04-08T12:10:39.518Z,11.37
2023-04-08T12:13:07.308Z,10.60
2023-04-08T12:15:35.096Z,10.30
2023-04-08T12:18:02.946Z,10.47
2023-04-08T12:20:30.744Z,10.53
2023-04-08T12:22:58.861Z,10.67
2023-04-08T12:25:29.140Z,11.20
2023-04-08T12:27:56.894Z,10.37
2023-04-08T12:30:24.616Z,11.37
2023-04-08T12:32:53.322Z,10.67
2023-04-08T12:35:21.269Z,10.07
2023-04-08T12:37:49.005Z,10.70
2023-04-08T12:40:19.158Z,9.53
2023-04-08T12:42:48.479Z,10.20
2023-04-08T12:45:16.233Z,10.53
2023-04-08T12:47:44.025Z,11.27
2023-04-08T12:50:11.898Z,11.00
2023-04-08T12:52:39.707Z,11.17
2023-04-08T12:55:08.593Z,11.40
2023-04-08T12:57:36.715Z,9.97
2023-04-08T13:00:07.060Z,10.67
2023-04-08T13:02:34.894Z,10.40
2023-04-08T13:05:02.746Z,10.23
2023-04-08T13:07:30.478Z,10.53
2023-04-08T13:09:58.159Z,11.13
2023-04-08T13:12:25.871Z,9.83
2023-04-08T13:14:53.579Z,11.00
2023-04-08T13:17:22.784Z,10.87
2023-04-08T13:19:51.180Z,10.07
2023-04-08T13:22:18.943Z,11.70
2023-04-08T13:24:46.676Z,10.90
2023-04-08T13:27:14.422Z,10.87
2023-04-08T13:29:42.157Z,10.43
2023-04-08T13:32:10.058Z,9.93
2023-04-08T13:34:39.249Z,10.23
2023-04-08T13:37:06.945Z,11.17
2023-04-08T13:39:34.638Z,9.97
2023-04-08T13:42:02.785Z,10.43
2023-04-08T13:44:30.490Z,10.33
2023-04-08T13:46:58.161Z,10.50
2023-04-08T13:49:25.929Z,10.33
2023-04-08T13:51:55.249Z,10.63
2023-04-08T13:54:22.960Z,10.57
2023-04-08T13:56:50.832Z,10.47
2023-04-08T13:59:18.555Z,10.40
2023-04-08T14:01:46.377Z,10.23
2023-04-08T14:04:14.202Z,9.73
2023-04-08T14:06:41.945Z,10.27
2023-04-08T14:09:11.574Z,9.57
2023-04-08T14:11:39.386Z,9.50
2023-04-08T14:14:07.119Z,10.27
2023-04-08T14:16:35.976Z,9.97
2023-04-08T14:19:04.257Z,10.40
2023-04-08T14:21:32.026Z,10.00
2023-04-08T14:24:01.961Z,9.90
2023-04-08T14:26:35.683Z,8.87
2023-04-08T14:29:05.387Z,9.67
2023-04-08T14:31:33.847Z,9.53
2023-04-08T14:34:01.970Z,9.30
2023-04-08T14:36:30.285Z,9.40
2023-04-08T14:38:58.368Z,9.13
2023-04-08T14:41:27.177Z,9.87
2023-04-08T14:43:56.357Z,9.30
2023-04-08T14:46:25.380Z,8.50
2023-04-08T14:48:54.967Z,9.17
2023-04-08T14:51:22.715Z,9.50
2023-04-08T14:53:50.460Z,8.93
2023-04-08T14:56:18.254Z,9.00
2023-04-08T14:58:46.012Z,9.33
2023-04-08T15:01:15.315Z,9.30
2023-04-08T15:03:43.136Z,9.80
2023-04-08T15:06:11.016Z,9.97
2023-04-08T15:08:39.136Z,9.53
2023-04-08T15:11:06.864Z,8.30
2023-04-08T15:13:35.908Z,8.53
2023-04-08T15:16:03.916Z,8.53
2023-04-08T15:18:33.021Z,8.40
2023-04-08T15:21:00.795Z,8.53
2023-04-08T15:23:28.528Z,9.03
2023-04-08T15:25:57.082Z,8.57
2023-04-08T15:28:25.128Z,8.47
2023-04-08T15:30:52.824Z,9.83
2023-04-08T15:33:21.273Z,8.70
2023-04-08T15:35:50.448Z,8.70
2023-04-08T15:38:18.510Z,8.43
2023-04-08T15:40:48.077Z,8.27
2023-04-08T15:43:16.593Z,8.63
2023-04-08T15:45:46.369Z,9.13
2023-04-08T15:48:14.106Z,9.83
2023-04-08T15:50:42.168Z,8.90
2023-04-08T15:53:11.406Z,8.97
2023-04-08T15:55:39.990Z,8.83
2023-04-08T15:58:08.051Z,9.53
2023-04-08T16:00:35.839Z,9.17
2023-04-08T16:03:05.513Z,8.73
2023-04-08T16:05:35.850Z,8.80
2023-04-08T16:08:04.456Z,8.60
2023-04-08T16:10:34.183Z,9.50
2023-04-08T16:13:01.992Z,9.90
2023-04-08T16:15:29.732Z,8.90
2023-04-08T16:17:57.485Z,9.43
2023-04-08T16:20:26.221Z,9.50
2023-04-08T16:22:54.089Z,9.17
2023-04-08T16:25:22.008Z,8.70
2023-04-08T16:27:51.080Z,8.70
2023-04-08T16:30:18.818Z,9.23
2023-04-08T16:32:46.636Z,8.37
2023-04-08T16:35:14.443Z,8.77
2023-04-08T16:37:42.192Z,9.47
2023-04-08T16:40:11.386Z,8.33
2023-04-08T16:42:39.084Z,8.73
2023-04-08T16:45:09.634Z,8.80
2023-04-08T16:47:39.291Z,9.10
2023-04-08T16:50:08.348Z,10.03
2023-04-08T16:52:36.254Z,9.43
2023-04-08T16:55:04.262Z,9.23
2023-04-08T16:57:32.052Z,8.80
2023-04-08T16:59:59.844Z,7.93
2023-04-08T17:02:29.245Z,7.90
2023-04-08T17:04:57.206Z,8.93
2023-04-08T17:07:25.016Z,8.97
2023-04-08T17:09:56.177Z,13.17
2023-04-08T17:12:24.213Z,10.30
2023-04-08T17:14:52.007Z,9.77
2023-04-08T17:17:19.731Z,9.03
2023-04-08T17:19:48.824Z,9.03
2023-04-08T17:22:16.554Z,8.13
2023-04-08T17:24:47.782Z,7.83
2023-04-08T17:27:16.155Z,7.60
2023-04-08T17:29:44.038Z,7.13
2023-04-08T17:32:12.501Z,7.13
2023-04-08T17:34:40.965Z,7.30
2023-04-08T17:37:10.445Z,7.83
2023-04-08T17:39:40.803Z,7.97
2023-04-08T17:42:08.945Z,7.43
2023-04-08T17:44:37.006Z,8.20
2023-04-08T17:47:05.227Z,7.93
2023-04-08T17:49:32.950Z,8.47
2023-04-08T17:52:00.705Z,8.37
2023-04-08T17:54:31.424Z,9.40
2023-04-08T17:56:59.157Z,9.07
2023-04-08T17:59:26.895Z,8.67
2023-04-08T18:01:55.256Z,9.03
2023-04-08T18:04:23.897Z,8.77
2023-04-08T18:06:51.741Z,8.50
2023-04-08T18:09:19.490Z,8.73
2023-04-08T18:11:48.588Z,9.10
2023-04-08T18:14:16.605Z,8.30
2023-04-08T18:16:44.380Z,8.40
2023-04-08T18:19:13.460Z,9.53
2023-04-08T18:21:41.194Z,9.30
2023-04-08T18:24:09.422Z,9.93
2023-04-08T18:26:37.262Z,9.63
2023-04-08T18:29:06.651Z,9.57
2023-04-08T18:31:34.462Z,9.40
2023-04-08T18:34:03.169Z,10.57
2023-04-08T18:36:31.647Z,9.77
2023-04-08T18:38:59.347Z,10.90
2023-04-08T18:41:27.923Z,10.47
2023-04-08T18:43:56.507Z,11.87
2023-04-08T18:46:25.626Z,10.83
2023-04-08T18:48:53.399Z,9.53
2023-04-08T18:51:21.133Z,10.13
2023-04-08T18:53:49.858Z,10.40
2023-04-08T18:56:18.333Z,10.53
2023-04-08T18:58:47.033Z,10.57
2023-04-08T19:01:16.250Z,9.70
2023-04-08T19:03:45.844Z,9.90
2023-04-08T19:06:14.484Z,10.80
2023-04-08T19:08:42.500Z,11.63
2023-04-08T19:11:10.370Z,11.40
2023-04-08T19:13:38.085Z,11.33
2023-04-08T19:16:06.538Z,11.30
2023-04-08T19:18:34.353Z,11.93
2023-04-08T19:21:03.512Z,11.93
2023-04-08T19:23:32.075Z,12.10
2023-04-08T19:25:59.838Z,12.37
2023-04-08T19:28:27.555Z,12.87
2023-04-08T19:30:55.308Z,13.03
2023-04-08T19:33:23.643Z,13.00
2023-04-08T19:35:51.435Z,14.80
2023-04-08T19:38:20.636Z,14.07
2023-04-08T19:40:48.934Z,13.50
2023-04-08T19:43:17.575Z,13.37
2023-04-08T19:45:45.445Z,13.67
2023-04-08T19:48:13.850Z,13.67
2023-04-08T19:50:42.707Z,13.33
2023-04-08T19:53:10.454Z,14.07
2023-04-08T19:55:39.598Z,13.90
2023-04-08T19:58:07.882Z,13.83
2023-04-08T20:00:37.374Z,13.33
2023-04-08T20:03:05.905Z,13.37
2023-04-08T20:05:33.990Z,12.03
2023-04-08T20:08:01.748Z,12.67
2023-04-08T20:10:29.554Z,13.13
2023-04-08T20:12:58.662Z,12.67
2023-04-08T20:15:26.501Z,11.97
2023-04-08T20:17:54.386Z,12.97
2023-04-08T20:20:22.805Z,12.40
2023-04-08T20:22:50.813Z,11.73
2023-04-08T20:25:18.703Z,12.13
2023-04-08T20:27:46.544Z,11.80
2023-04-08T20:30:15.774Z,12.97
2023-04-08T20:32:43.505Z,11.97
2023-04-08T20:35:11.779Z,11.80
2023-04-08T20:37:39.511Z,10.93
2023-04-08T20:40:08.746Z,11.37
2023-04-08T20:42:36.474Z,12.27
2023-04-08T20:45:04.376Z,11.47
2023-04-08T20:47:33.675Z,11.37
2023-04-08T20:50:01.740Z,11.73
2023-04-08T20:52:29.482Z,10.80
2023-04-08T20:54:57.228Z,10.97
2023-04-08T20:57:24.993Z,11.53
2023-04-08T20:59:52.743Z,12.17
2023-04-08T21:02:21.865Z,11.77
2023-04-08T21:04:51.291Z,11.53
2023-04-08T21:07:19.064Z,11.83
2023-04-08T21:09:48.678Z,10.43
2023-04-08T21:12:16.470Z,11.47
2023-04-08T21:14:45.269Z,12.47
2023-04-08T21:17:13.037Z,11.80
2023-04-08T21:19:41.967Z,10.87
2023-04-08T21:22:11.113Z,11.50
2023-04-08T21:24:38.802Z,12.03
2023-04-08T21:27:06.611Z,11.90
2023-04-08T21:29:34.358Z,11.90
2023-04-08T21:32:02.553Z,10.97
2023-04-08T21:34:31.083Z,12.60
2023-04-08T21:36:58.867Z,11.30
2023-04-08T21:39:27.952Z,11.27
2023-04-08T21:41:55.685Z,11.03
2023-04-08T21:44:23.448Z,11.17
2023-04-08T21:46:51.188Z,11.70
2023-04-08T21:49:18.906Z,11.23
2023-04-08T21:51:46.640Z,11.33
2023-04-08T21:54:14.429Z,11.70
2023-04-08T21:56:43.717Z,11.60
2023-04-08T21:59:11.472Z,12.27
2023-04-08T22:01:39.337Z,11.77
2023-04-08T22:04:07.394Z,11.70
2023-04-08T22:06:35.270Z,11.87
2023-04-08T22:09:03.353Z,11.60
2023-04-08T22:11:31.089Z,10.93
2023-04-08T22:14:00.237Z,11.00
2023-04-08T22:16:28.007Z,11.13
2023-04-08T22:18:55.745Z,11.17
2023-04-08T22:21:23.742Z,11.47
2023-04-08T22:23:51.490Z,11.00
2023-04-08T22:26:19.209Z,11.10
2023-04-08T22:28:46.934Z,11.53
2023-04-08T22:31:16.334Z,11.00
2023-04-08T22:33:44.145Z,10.57
2023-04-08T22:36:11.890Z,10.70
2023-04-08T22:38:39.714Z,11.13
2023-04-08T22:41:07.461Z,11.33
2023-04-08T22:43:35.161Z,11.30
2023-04-08T22:46:02.876Z,10.60
2023-04-08T22:48:31.977Z,10.50
2023-04-08T22:50:59.713Z,11.03
2023-04-08T22:53:28.022Z,11.07
2023-04-08T22:55:55.752Z,11.50
2023-04-08T22:58:23.454Z,11.00
2023-04-08T23:00:51.224Z,11.07
2023-04-08T23:03:19.014Z,11.67
2023-04-08T23:05:48.150Z,11.00
2023-04-08T23:08:15.924Z,12.50
2023-04-08T23:10:43.605Z,11.93
2023-04-08T23:13:11.358Z,13.50
2023-04-08T23:15:39.122Z,14.37
2023-04-08T23:18:06.926Z,14.47
2023-04-08T23:20:35.536Z,13.43
2023-04-08T23:23:04.652Z,14.37
2023-04-08T23:25:35.997Z,13.07
2023-04-08T23:28:03.689Z,12.77
2023-04-08T23:30:31.401Z,12.97
2023-04-08T23:32:59.282Z,12.73
2023-04-08T23:35:27.005Z,12.60
2023-04-08T23:37:54.749Z,13.00
2023-04-08T23:40:23.831Z,13.27
2023-04-08T23:42:51.581Z,13.60
2023-04-08T23:45:19.450Z,14.03
2023-04-08T23:47:47.170Z,14.33
2023-04-08T23:50:14.940Z,14.23
2023-04-08T23:52:42.760Z,15.47
2023-04-08T23:55:11.144Z,15.20
2023-04-08T23:57:42.757Z,15.47
